Time;durP1;ratioP1;P1;durP2;ratioP2;P2;SDS_P1;SDS_P2;PMS_P1;PMS_P2;Temp;Humidity;BMP_temperature;BMP_pressure;BME280_temperature;BME280_humidity;BME280_pressure;Samples;Min_cycle;Max_cycle;Signal;HPM_P1;HPM_P2
2021/12/23 00:01:22;;;;;;;;;69.33;53.00;;;;;;;;5059744;28;8938;-80
2021/12/23 00:03:49;;;;;;;;;80.00;62.00;;;;;;;;5048834;28;8891;-79
2021/12/23 00:06:16;;;;;;;;;62.67;51.00;;;;;;;;5061218;28;8888;-79
2021/12/23 00:08:44;;;;;;;;;56.00;46.33;;;;;;;;5061371;28;8884;-79
2021/12/23 00:11:11;;;;;;;;;78.67;63.67;;;;;;;;5058637;28;8873;-80
2021/12/23 00:13:48;;;;;;;;;78.33;63.00;;;;;;;;5060319;28;8965;-78
2021/12/23 00:16:18;;;;;;;;;77.67;62.33;;;;;;;;5049558;28;8873;-79
2021/12/23 00:18:54;;;;;;;;;55.67;46.33;;;;;;;;5050526;28;8892;-80
2021/12/23 00:24:07;;;;;;;;;56.00;46.00;;;;;;;;5054909;28;8847;-77
2021/12/23 00:26:34;;;;;;;;;72.00;52.00;;;;;;;;5052455;28;8860;-80
2021/12/23 00:29:01;;;;;;;;;67.33;53.00;;;;;;;;5049040;28;8880;-81
2021/12/23 00:31:29;;;;;;;;;52.00;47.33;;;;;;;;5055399;28;8806;-80
2021/12/23 00:33:57;;;;;;;;;57.67;51.33;;;;;;;;5048254;28;8891;-78
2021/12/23 00:36:25;;;;;;;;;50.33;47.00;;;;;;;;5059401;28;8856;-78
2021/12/23 00:38:55;;;;;;;;;54.33;50.00;;;;;;;;5056688;28;9620;-81
2021/12/23 00:41:28;;;;;;;;;36.00;36.00;;;;;;;;5058330;28;8917;-82
2021/12/23 00:43:55;;;;;;;;;57.33;50.33;;;;;;;;5053023;28;8861;-81
2021/12/23 00:46:22;;;;;;;;;48.33;46.33;;;;;;;;5053072;28;8882;-78
2021/12/23 00:48:50;;;;;;;;;59.00;49.67;;;;;;;;5056959;28;8942;-78
2021/12/23 00:51:20;;;;;;;;;58.67;45.67;;;;;;;;5056095;28;8882;-78
2021/12/23 00:53:50;;;;;;;;;60.00;51.67;;;;;;;;5060681;28;8866;-80
2021/12/23 00:56:17;;;;;;;;;53.33;48.33;;;;;;;;5051803;28;9443;-79
2021/12/23 00:58:45;;;;;;;;;66.33;51.67;;;;;;;;5054744;28;8884;-81
2021/12/23 01:01:13;;;;;;;;;56.67;49.00;;;;;;;;5068573;28;8866;-81
2021/12/23 01:03:40;;;;;;;;;58.67;47.33;;;;;;;;5059447;28;8862;-79
2021/12/23 01:06:08;;;;;;;;;65.00;52.00;;;;;;;;5069552;28;9542;-79
2021/12/23 01:08:36;;;;;;;;;70.33;55.00;;;;;;;;5062876;28;8854;-81
2021/12/23 01:11:04;;;;;;;;;55.33;47.67;;;;;;;;5052306;28;8861;-82
2021/12/23 01:13:31;;;;;;;;;55.67;50.33;;;;;;;;5053668;28;9621;-80
2021/12/23 01:16:24;;;;;;;;;58.67;48.00;;;;;;;;5055274;28;8848;-81
2021/12/23 01:18:54;;;;;;;;;51.33;47.33;;;;;;;;5050611;28;8845;-80
2021/12/23 01:21:22;;;;;;;;;52.67;48.67;;;;;;;;5053211;28;8981;-78
2021/12/23 01:23:52;;;;;;;;;53.67;47.00;;;;;;;;5059700;28;9266;-78
2021/12/23 01:26:22;;;;;;;;;48.67;43.00;;;;;;;;5059212;28;8897;-80
2021/12/23 01:28:52;;;;;;;;;59.67;48.67;;;;;;;;5058999;28;9029;-79
2021/12/23 01:31:21;;;;;;;;;53.67;47.00;;;;;;;;5058113;28;9591;-79
2021/12/23 01:33:49;;;;;;;;;70.00;55.33;;;;;;;;5060091;28;8881;-77
2021/12/23 01:36:16;;;;;;;;;66.00;52.00;;;;;;;;5054457;28;8859;-76
2021/12/23 01:38:44;;;;;;;;;52.33;44.00;;;;;;;;5052175;28;8873;-77
2021/12/23 01:41:15;;;;;;;;;56.00;49.00;;;;;;;;5057746;28;8875;-77
2021/12/23 01:43:42;;;;;;;;;61.33;47.67;;;;;;;;5055364;28;8866;-78
2021/12/23 01:46:10;;;;;;;;;54.00;47.33;;;;;;;;5050628;28;8861;-76
2021/12/23 01:48:38;;;;;;;;;47.33;44.33;;;;;;;;5053631;28;8851;-79
2021/12/23 01:51:05;;;;;;;;;68.67;55.00;;;;;;;;5060351;28;8895;-77
2021/12/23 01:53:33;;;;;;;;;62.00;51.00;;;;;;;;5054586;28;8861;-76
2021/12/23 01:56:01;;;;;;;;;67.00;51.33;;;;;;;;5049548;28;8871;-80
2021/12/23 01:58:29;;;;;;;;;50.67;42.67;;;;;;;;5048866;28;8903;-78
2021/12/23 02:00:56;;;;;;;;;62.00;54.00;;;;;;;;5047471;28;8811;-78
2021/12/23 02:03:24;;;;;;;;;66.67;52.33;;;;;;;;5056956;28;9640;-81
2021/12/23 02:05:52;;;;;;;;;66.00;50.33;;;;;;;;5059727;28;8884;-82
2021/12/23 02:08:19;;;;;;;;;49.00;46.33;;;;;;;;5049871;28;8901;-83
2021/12/23 02:10:47;;;;;;;;;51.00;43.00;;;;;;;;5063965;28;8851;-83
2021/12/23 02:13:14;;;;;;;;;63.67;52.33;;;;;;;;5058707;28;8863;-77
2021/12/23 02:15:43;;;;;;;;;59.67;50.67;;;;;;;;5061165;28;9689;-78
2021/12/23 02:18:11;;;;;;;;;60.67;50.33;;;;;;;;5061776;28;8890;-78
2021/12/23 02:20:39;;;;;;;;;64.33;48.33;;;;;;;;5058390;28;9639;-76
2021/12/23 02:23:09;;;;;;;;;66.67;51.33;;;;;;;;5047467;28;8913;-78
2021/12/23 02:25:37;;;;;;;;;66.00;50.67;;;;;;;;5050039;28;8853;-79
2021/12/23 02:28:07;;;;;;;;;65.67;50.33;;;;;;;;5054688;28;8850;-76
2021/12/23 02:30:38;;;;;;;;;63.33;49.67;;;;;;;;5046872;28;8809;-80
2021/12/23 02:33:06;;;;;;;;;62.67;50.67;;;;;;;;5055154;28;8869;-81
2021/12/23 02:35:35;;;;;;;;;57.33;45.00;;;;;;;;5050596;28;8866;-82
2021/12/23 02:38:05;;;;;;;;;62.33;47.00;;;;;;;;5066315;28;8873;-82
2021/12/23 02:40:34;;;;;;;;;70.67;50.00;;;;;;;;5048697;28;8877;-77
2021/12/23 02:43:10;;;;;;;;;53.67;44.67;;;;;;;;5049512;28;8873;-78
2021/12/23 02:45:38;;;;;;;;;55.00;47.00;;;;;;;;5053871;28;8972;-77
2021/12/23 02:48:11;;;;;;;;;64.33;51.67;;;;;;;;5054706;28;8878;-77
2021/12/23 02:50:38;;;;;;;;;59.33;49.67;;;;;;;;5057228;28;8869;-78
2021/12/23 02:53:07;;;;;;;;;56.00;47.67;;;;;;;;5048801;28;8869;-77
2021/12/23 02:55:34;;;;;;;;;54.67;44.33;;;;;;;;5058788;28;8902;-78
2021/12/23 02:58:02;;;;;;;;;49.33;43.33;;;;;;;;5053982;28;8850;-78
2021/12/23 03:00:30;;;;;;;;;58.67;50.00;;;;;;;;5052969;28;8923;-80
2021/12/23 03:02:57;;;;;;;;;62.33;48.00;;;;;;;;5057943;28;8877;-81
2021/12/23 03:05:25;;;;;;;;;68.00;48.67;;;;;;;;5063082;28;8874;-78
2021/12/23 03:07:52;;;;;;;;;26.33;23.33;;;;;;;;5052566;28;8976;-81
2021/12/23 03:10:22;;;;;;;;;64.00;48.67;;;;;;;;5052225;28;8890;-81
2021/12/23 03:12:50;;;;;;;;;60.33;47.00;;;;;;;;5058745;28;8870;-81
2021/12/23 03:15:17;;;;;;;;;57.33;46.00;;;;;;;;5049098;28;8905;-79
2021/12/23 03:17:46;;;;;;;;;58.67;48.67;;;;;;;;5057775;28;8855;-80
2021/12/23 03:20:14;;;;;;;;;65.00;48.00;;;;;;;;5060674;28;9000;-79
2021/12/23 03:22:41;;;;;;;;;67.00;52.67;;;;;;;;5055170;28;8882;-80
2021/12/23 03:25:09;;;;;;;;;58.00;51.00;;;;;;;;5059271;28;8857;-80
2021/12/23 03:27:37;;;;;;;;;58.67;48.67;;;;;;;;5056259;28;8847;-78
2021/12/23 03:30:06;;;;;;;;;54.67;48.00;;;;;;;;5054423;28;8855;-79
2021/12/23 03:32:34;;;;;;;;;59.00;50.00;;;;;;;;5058885;28;8880;-81
2021/12/23 03:35:01;;;;;;;;;56.67;46.33;;;;;;;;5054267;28;8991;-77
2021/12/23 03:37:28;;;;;;;;;64.33;50.67;;;;;;;;5054886;28;8858;-76
2021/12/23 03:39:56;;;;;;;;;55.00;44.67;;;;;;;;5056358;28;8995;-78
2021/12/23 03:42:23;;;;;;;;;60.00;43.33;;;;;;;;5055055;28;8862;-81
2021/12/23 03:44:52;;;;;;;;;58.33;50.67;;;;;;;;5080427;28;8949;-80
2021/12/23 03:47:19;;;;;;;;;63.67;53.33;;;;;;;;5062732;28;9013;-81
2021/12/23 03:49:46;;;;;;;;;56.33;49.00;;;;;;;;5082933;28;8911;-80
2021/12/23 03:52:14;;;;;;;;;56.33;46.00;;;;;;;;5058774;28;8866;-76
2021/12/23 03:54:42;;;;;;;;;47.67;45.33;;;;;;;;5057382;28;8871;-78
2021/12/23 03:57:09;;;;;;;;;55.00;44.67;;;;;;;;5058001;28;8855;-79
2021/12/23 03:59:36;;;;;;;;;49.67;45.33;;;;;;;;5055125;28;8940;-79
2021/12/23 04:02:06;;;;;;;;;51.33;47.00;;;;;;;;5057101;28;8826;-79
2021/12/23 04:04:33;;;;;;;;;64.00;51.33;;;;;;;;5051637;28;8878;-79
2021/12/23 04:07:01;;;;;;;;;53.00;47.00;;;;;;;;5049529;28;8879;-79
2021/12/23 04:09:28;;;;;;;;;58.33;46.33;;;;;;;;5050243;28;8891;-82
2021/12/23 04:11:56;;;;;;;;;61.67;48.33;;;;;;;;5060716;28;9144;-82
2021/12/23 04:14:23;;;;;;;;;58.33;47.00;;;;;;;;5055205;28;8867;-77
2021/12/23 04:16:50;;;;;;;;;56.33;50.33;;;;;;;;5060923;28;8890;-79
2021/12/23 04:19:19;;;;;;;;;53.00;47.33;;;;;;;;5057481;28;8892;-76
2021/12/23 04:21:47;;;;;;;;;69.00;50.67;;;;;;;;5056726;28;8863;-77
2021/12/23 04:24:14;;;;;;;;;49.00;45.33;;;;;;;;5054023;28;8903;-78
2021/12/23 04:26:42;;;;;;;;;49.67;43.67;;;;;;;;5062204;28;8899;-82
2021/12/23 04:29:09;;;;;;;;;48.33;45.33;;;;;;;;5060489;28;8857;-83
2021/12/23 04:31:36;;;;;;;;;57.00;46.67;;;;;;;;5059995;28;8839;-82
2021/12/23 04:34:04;;;;;;;;;46.67;39.67;;;;;;;;5052441;28;8854;-79
2021/12/23 04:36:32;;;;;;;;;48.33;46.33;;;;;;;;5062594;28;8880;-79
2021/12/23 04:39:00;;;;;;;;;57.00;49.00;;;;;;;;5056969;28;8855;-78
2021/12/23 04:41:28;;;;;;;;;56.33;47.00;;;;;;;;5063798;28;8876;-78
2021/12/23 04:43:55;;;;;;;;;61.33;49.00;;;;;;;;5057523;28;8855;-81
2021/12/23 04:46:23;;;;;;;;;56.00;42.00;;;;;;;;5046007;28;8914;-81
2021/12/23 04:48:51;;;;;;;;;54.33;45.33;;;;;;;;5065878;28;8886;-79
2021/12/23 04:51:19;;;;;;;;;58.00;46.67;;;;;;;;5054895;28;8865;-81
2021/12/23 04:53:48;;;;;;;;;49.00;45.33;;;;;;;;5058094;28;8983;-81
2021/12/23 04:56:17;;;;;;;;;53.00;43.00;;;;;;;;5059959;28;8853;-78
2021/12/23 04:58:45;;;;;;;;;57.00;43.33;;;;;;;;5053841;28;8891;-77
2021/12/23 05:01:20;;;;;;;;;59.00;50.00;;;;;;;;5054130;28;8823;-79
2021/12/23 05:03:48;;;;;;;;;54.00;45.33;;;;;;;;5058297;28;8875;-80
2021/12/23 05:06:16;;;;;;;;;33.67;30.33;;;;;;;;5053142;28;8895;-80
2021/12/23 05:08:44;;;;;;;;;54.67;43.33;;;;;;;;5048341;28;8881;-77
2021/12/23 05:11:13;;;;;;;;;51.67;46.33;;;;;;;;5051119;28;8948;-87
2021/12/23 05:13:40;;;;;;;;;64.00;47.00;;;;;;;;5065248;28;8850;-87
2021/12/23 05:16:08;;;;;;;;;53.67;47.00;;;;;;;;5054523;28;9001;-83
2021/12/23 05:18:35;;;;;;;;;57.00;48.00;;;;;;;;5055671;28;8857;-81
2021/12/23 05:21:05;;;;;;;;;54.00;48.67;;;;;;;;5056549;28;9045;-79
2021/12/23 05:23:32;;;;;;;;;48.00;43.33;;;;;;;;5059961;28;8843;-78
2021/12/23 05:26:00;;;;;;;;;55.67;47.00;;;;;;;;5058514;28;8877;-74
2021/12/23 05:28:29;;;;;;;;;56.33;46.00;;;;;;;;5060130;28;9242;-77
2021/12/23 05:30:56;;;;;;;;;54.33;43.00;;;;;;;;5056470;28;8794;-74
2021/12/23 05:33:23;;;;;;;;;60.33;49.67;;;;;;;;5058887;28;8903;-73
2021/12/23 05:35:51;;;;;;;;;62.33;50.00;;;;;;;;5061166;28;8886;-81
2021/12/23 05:38:18;;;;;;;;;55.00;45.67;;;;;;;;5058674;28;8911;-74
2021/12/23 05:40:45;;;;;;;;;53.33;47.00;;;;;;;;5055285;28;8883;-76
2021/12/23 05:43:12;;;;;;;;;58.00;49.67;;;;;;;;5059093;28;8918;-79
2021/12/23 05:45:42;;;;;;;;;50.67;43.33;;;;;;;;5050558;28;8878;-75
2021/12/23 05:48:09;;;;;;;;;67.67;47.67;;;;;;;;5053366;28;8847;-75
2021/12/23 05:50:36;;;;;;;;;54.33;47.00;;;;;;;;5065118;28;8924;-77
2021/12/23 05:53:04;;;;;;;;;51.00;41.33;;;;;;;;5054517;28;8984;-76
2021/12/23 05:55:31;;;;;;;;;51.67;44.67;;;;;;;;5043551;28;8984;-74
2021/12/23 05:57:58;;;;;;;;;62.33;47.67;;;;;;;;5046323;28;8858;-73
2021/12/23 06:00:27;;;;;;;;;52.00;46.33;;;;;;;;5049317;28;8778;-77
2021/12/23 06:02:57;;;;;;;;;67.00;51.00;;;;;;;;5051956;28;8880;-75
2021/12/23 06:05:25;;;;;;;;;60.00;47.00;;;;;;;;5063751;28;8878;-73
2021/12/23 06:07:52;;;;;;;;;54.67;45.00;;;;;;;;5063105;28;8879;-79
2021/12/23 06:10:20;;;;;;;;;49.00;46.67;;;;;;;;5064357;28;8846;-74
2021/12/23 06:12:48;;;;;;;;;61.33;49.00;;;;;;;;5052775;28;8867;-79
2021/12/23 06:15:16;;;;;;;;;51.33;41.67;;;;;;;;5062724;28;8847;-76
2021/12/23 06:17:44;;;;;;;;;61.67;47.67;;;;;;;;5044474;28;8915;-75
2021/12/23 06:20:14;;;;;;;;;57.00;48.67;;;;;;;;5050839;28;8975;-75
2021/12/23 06:22:42;;;;;;;;;53.67;46.33;;;;;;;;5064029;28;8897;-76
2021/12/23 06:25:11;;;;;;;;;59.33;49.00;;;;;;;;5061230;28;8859;-75
2021/12/23 06:27:39;;;;;;;;;50.00;44.00;;;;;;;;5057790;28;8863;-77
2021/12/23 06:30:15;;;;;;;;;60.33;46.67;;;;;;;;5063658;28;8878;-77
2021/12/23 06:32:42;;;;;;;;;69.67;53.67;;;;;;;;5052676;28;8870;-80
2021/12/23 06:35:12;;;;;;;;;62.00;52.33;;;;;;;;5059218;28;9633;-83
2021/12/23 06:37:40;;;;;;;;;63.33;49.33;;;;;;;;5066626;28;8862;-78
2021/12/23 06:40:08;;;;;;;;;69.00;55.33;;;;;;;;5050910;28;8859;-78
2021/12/23 06:42:36;;;;;;;;;62.33;49.33;;;;;;;;5061330;28;8882;-83
2021/12/23 06:45:04;;;;;;;;;59.33;49.00;;;;;;;;5065180;28;8969;-83
2021/12/23 06:47:32;;;;;;;;;63.00;49.67;;;;;;;;5051765;28;8884;-80
2021/12/23 06:49:59;;;;;;;;;64.67;49.00;;;;;;;;5070639;22;8939;-84
2021/12/23 06:52:28;;;;;;;;;61.67;48.00;;;;;;;;5053796;28;9650;-83
2021/12/23 06:54:56;;;;;;;;;75.67;53.00;;;;;;;;5053134;28;8853;-79
2021/12/23 06:57:25;;;;;;;;;76.00;59.67;;;;;;;;5058137;28;8897;-79
2021/12/23 06:59:52;;;;;;;;;55.33;45.67;;;;;;;;5066268;28;8862;-80
2021/12/23 07:02:20;;;;;;;;;64.67;51.67;;;;;;;;5061083;28;9648;-79
2021/12/23 07:04:48;;;;;;;;;64.33;54.00;;;;;;;;5057682;28;9769;-76
2021/12/23 07:07:26;;;;;;;;;60.67;48.67;;;;;;;;5061784;28;8867;-76
2021/12/23 07:09:55;;;;;;;;;68.33;53.00;;;;;;;;5058228;28;8865;-73
2021/12/23 07:12:24;;;;;;;;;55.33;44.33;;;;;;;;5061821;28;8871;-75
2021/12/23 07:14:51;;;;;;;;;60.67;47.33;;;;;;;;5055387;28;8994;-76
2021/12/23 07:17:19;;;;;;;;;56.67;46.00;;;;;;;;5075477;28;8876;-75
2021/12/23 07:19:46;;;;;;;;;56.67;45.67;;;;;;;;5042312;28;9601;-76
2021/12/23 07:22:13;;;;;;;;;61.67;49.33;;;;;;;;5053952;28;8882;-77
2021/12/23 07:24:41;;;;;;;;;57.33;50.00;;;;;;;;5054394;28;8871;-77
2021/12/23 07:27:10;;;;;;;;;66.67;51.33;;;;;;;;5051187;28;8877;-78
2021/12/23 07:29:39;;;;;;;;;51.67;46.00;;;;;;;;5062888;28;10048;-77
2021/12/23 07:32:07;;;;;;;;;70.33;54.33;;;;;;;;5058360;28;8833;-77
2021/12/23 07:34:34;;;;;;;;;51.33;46.00;;;;;;;;5062979;28;8858;-75
2021/12/23 07:37:02;;;;;;;;;55.67;47.00;;;;;;;;5060071;28;8993;-74
2021/12/23 07:39:30;;;;;;;;;55.00;45.67;;;;;;;;5057516;28;9664;-75
2021/12/23 07:41:58;;;;;;;;;58.00;48.33;;;;;;;;5059582;28;8886;-75
2021/12/23 07:44:27;;;;;;;;;33.00;27.33;;;;;;;;5055081;28;8916;-74
2021/12/23 07:46:55;;;;;;;;;48.00;39.00;;;;;;;;5058088;28;8850;-74
2021/12/23 07:49:22;;;;;;;;;52.00;44.67;;;;;;;;5055966;28;9046;-73
2021/12/23 07:51:50;;;;;;;;;46.00;42.00;;;;;;;;5058251;28;9038;-74
2021/12/23 07:54:17;;;;;;;;;64.33;48.00;;;;;;;;5059836;28;9004;-74
2021/12/23 07:56:45;;;;;;;;;59.67;46.00;;;;;;;;5062802;28;9470;-74
2021/12/23 07:59:12;;;;;;;;;40.67;39.00;;;;;;;;5062285;28;8875;-73
2021/12/23 08:01:41;;;;;;;;;45.33;40.67;;;;;;;;5061688;28;8811;-74
2021/12/23 08:04:08;;;;;;;;;58.33;47.33;;;;;;;;5060312;28;8967;-74
2021/12/23 08:06:37;;;;;;;;;54.00;43.33;;;;;;;;5062568;28;8846;-74
2021/12/23 08:09:04;;;;;;;;;66.33;50.00;;;;;;;;5063722;28;8865;-74
2021/12/23 08:11:31;;;;;;;;;60.33;49.33;;;;;;;;5058917;28;8878;-74
2021/12/23 08:13:59;;;;;;;;;52.67;44.67;;;;;;;;5062584;28;8956;-74
2021/12/23 08:16:26;;;;;;;;;54.00;45.00;;;;;;;;5061840;28;8940;-74
2021/12/23 08:18:55;;;;;;;;;48.67;45.00;;;;;;;;5062774;28;8989;-74
2021/12/23 08:21:23;;;;;;;;;54.00;44.67;;;;;;;;5061726;28;8879;-74
2021/12/23 08:23:50;;;;;;;;;56.67;49.33;;;;;;;;5061995;28;8887;-75
2021/12/23 08:26:22;;;;;;;;;50.00;45.33;;;;;;;;5072028;28;8874;-72
2021/12/23 08:28:49;;;;;;;;;62.33;51.00;;;;;;;;5061591;28;9685;-74
2021/12/23 08:31:16;;;;;;;;;52.67;46.33;;;;;;;;5058627;28;8837;-75
2021/12/23 08:33:44;;;;;;;;;51.00;42.33;;;;;;;;5061558;28;8884;-76
2021/12/23 08:36:12;;;;;;;;;54.33;45.33;;;;;;;;5061573;28;8875;-76
2021/12/23 08:38:41;;;;;;;;;52.33;45.67;;;;;;;;5059442;28;8859;-75
2021/12/23 08:41:09;;;;;;;;;58.33;52.00;;;;;;;;5062123;28;8871;-76
2021/12/23 08:43:37;;;;;;;;;57.00;48.33;;;;;;;;5061881;28;8879;-75
2021/12/23 08:46:04;;;;;;;;;48.67;42.00;;;;;;;;5059831;28;8988;-74
2021/12/23 08:48:31;;;;;;;;;61.67;51.00;;;;;;;;5062204;28;8884;-76
2021/12/23 08:50:59;;;;;;;;;51.00;45.67;;;;;;;;5060866;28;8870;-75
2021/12/23 08:53:27;;;;;;;;;53.33;45.00;;;;;;;;5061554;28;8951;-74
2021/12/23 08:55:55;;;;;;;;;48.67;42.00;;;;;;;;5060070;28;8979;-75
2021/12/23 08:58:22;;;;;;;;;57.33;46.33;;;;;;;;5062228;28;8866;-75
2021/12/23 09:00:51;;;;;;;;;64.00;51.67;;;;;;;;5063034;28;11575;-74
2021/12/23 09:03:19;;;;;;;;;57.00;45.67;;;;;;;;5062922;28;8858;-74
2021/12/23 09:05:47;;;;;;;;;61.00;48.33;;;;;;;;5063561;28;8879;-75
2021/12/23 09:08:15;;;;;;;;;62.00;49.00;;;;;;;;5061723;28;8879;-75
2021/12/23 09:10:44;;;;;;;;;48.67;37.33;;;;;;;;5064056;28;11582;-75
2021/12/23 09:13:11;;;;;;;;;54.33;44.33;;;;;;;;5063966;28;12273;-74
2021/12/23 09:15:38;;;;;;;;;52.00;42.67;;;;;;;;5066772;28;8844;-74
2021/12/23 09:18:06;;;;;;;;;48.33;44.33;;;;;;;;5063937;28;11594;-75
2021/12/23 09:20:33;;;;;;;;;47.00;41.33;;;;;;;;5062396;28;11599;-74
2021/12/23 09:23:01;;;;;;;;;49.33;42.00;;;;;;;;5064354;28;11637;-74
2021/12/23 09:25:32;;;;;;;;;51.00;41.25;;;;;;;;5067328;28;11743;-74
2021/12/23 09:28:14;;;;;;;;;53.67;44.67;;;;;;;;5066026;28;11620;-74
2021/12/23 09:33:27;;;;;;;;;50.00;43.25;;;;;;;;5060683;28;12603;-75
2021/12/23 09:35:54;;;;;;;;;58.75;44.50;;;;;;;;5059498;28;11780;-73
2021/12/23 09:38:27;;;;;;;;;62.67;49.67;;;;;;;;5057251;28;11634;-72
2021/12/23 09:40:55;;;;;;;;;51.75;45.50;;;;;;;;5054375;28;11710;-72
2021/12/23 09:43:27;;;;;;;;;50.00;45.75;;;;;;;;5060375;28;11611;-75
2021/12/23 09:45:55;;;;;;;;;50.67;45.67;;;;;;;;5061115;28;11608;-72
2021/12/23 09:48:22;;;;;;;;;54.75;45.00;;;;;;;;5060992;28;11604;-73
2021/12/23 09:50:51;;;;;;;;;51.75;44.00;;;;;;;;5056683;28;11617;-73
2021/12/23 09:53:20;;;;;;;;;47.00;37.25;;;;;;;;5060069;28;11674;-76
2021/12/23 09:55:48;;;;;;;;;58.25;46.25;;;;;;;;5062943;28;11604;-72
2021/12/23 09:58:15;;;;;;;;;50.50;44.25;;;;;;;;5057738;28;11609;-74
2021/12/23 10:00:45;;;;;;;;;53.67;46.33;;;;;;;;5056758;28;11550;-73
2021/12/23 10:03:14;;;;;;;;;51.00;42.33;;;;;;;;5057107;28;11609;-71
2021/12/23 10:05:41;;;;;;;;;54.50;45.50;;;;;;;;5061638;28;12403;-74
2021/12/23 10:08:11;;;;;;;;;49.75;42.50;;;;;;;;5064078;28;12331;-73
2021/12/23 10:10:44;;;;;;;;;41.00;39.75;;;;;;;;5057169;28;11601;-73
2021/12/23 10:30:19;;;;;;;;;37.00;31.25;;;;;;;;5036023;28;11606;-74
2021/12/23 10:38:32;;;;;;;;;56.50;44.75;;;;;;;;5061675;28;11558;-72
2021/12/23 10:41:05;;;;;;;;;47.25;41.00;;;;;;;;5059152;28;11597;-72
2021/12/23 10:43:35;;;;;;;;;45.50;39.25;;;;;;;;5061109;28;11621;-73
2021/12/23 10:46:05;;;;;;;;;60.50;47.50;;;;;;;;5059901;28;11607;-73
2021/12/23 10:48:44;;;;;;;;;50.75;44.00;;;;;;;;5059865;28;11577;-71
2021/12/23 10:51:16;;;;;;;;;50.75;42.75;;;;;;;;5061001;28;11668;-75
2021/12/23 10:59:16;;;;;;;;;39.50;37.25;;;;;;;;5060364;28;11576;-74
2021/12/23 11:02:10;;;;;;;;;43.25;40.75;;;;;;;;5059441;28;11614;-75
2021/12/23 11:04:56;;;;;;;;;48.25;43.75;;;;;;;;5060032;28;11575;-76
2021/12/23 11:07:27;;;;;;;;;61.50;48.50;;;;;;;;5061357;28;11681;-75
2021/12/23 11:10:05;;;;;;;;;46.75;41.00;;;;;;;;5056926;28;11623;-74
2021/12/23 11:38:08;;;;;;;;;55.75;44.25;;;;;;;;5036890;28;12439;-73
2021/12/23 11:43:46;;;;;;;;;43.50;42.50;;;;;;;;5055271;28;11599;-78
2021/12/23 11:46:15;;;;;;;;;67.75;52.25;;;;;;;;5055369;28;11712;-75
2021/12/23 11:48:47;;;;;;;;;57.50;45.25;;;;;;;;5062945;28;12455;-77
2021/12/23 11:51:30;;;;;;;;;59.00;45.25;;;;;;;;5064947;28;11738;-74
2021/12/23 11:54:00;;;;;;;;;58.50;48.75;;;;;;;;5059821;28;11621;-75
2021/12/23 11:56:27;;;;;;;;;50.25;43.75;;;;;;;;5055802;28;12397;-74
2021/12/23 11:58:57;;;;;;;;;55.50;45.75;;;;;;;;5057764;28;11633;-75
2021/12/23 12:01:28;;;;;;;;;58.75;44.75;;;;;;;;5052110;28;12315;-74
2021/12/23 12:03:59;;;;;;;;;62.25;47.25;;;;;;;;5061095;28;12421;-74
2021/12/23 12:06:31;;;;;;;;;50.00;45.75;;;;;;;;5061539;28;11715;-75
2021/12/23 12:09:13;;;;;;;;;46.25;42.00;;;;;;;;5055604;28;11599;-76
2021/12/23 12:11:42;;;;;;;;;52.75;45.75;;;;;;;;5060565;28;11618;-75
2021/12/23 12:14:32;;;;;;;;;62.25;46.50;;;;;;;;5056245;28;11636;-78
2021/12/23 12:17:49;;;;;;;;;52.25;44.50;;;;;;;;5055472;28;11655;-74
2021/12/23 12:20:23;;;;;;;;;35.50;31.25;;;;;;;;5060397;28;12334;-73
2021/12/23 12:22:54;;;;;;;;;48.75;43.75;;;;;;;;5061475;28;11542;-74
2021/12/23 12:25:56;;;;;;;;;51.75;44.50;;;;;;;;5056840;28;11678;-73
2021/12/23 12:28:32;;;;;;;;;45.25;41.75;;;;;;;;5059370;28;11592;-74
2021/12/23 12:31:02;;;;;;;;;53.25;44.75;;;;;;;;5056510;28;11553;-74
2021/12/23 12:34:06;;;;;;;;;48.75;39.75;;;;;;;;5063168;28;11690;-71
2021/12/23 12:36:43;;;;;;;;;48.50;40.75;;;;;;;;5004053;28;11761;-76
2021/12/23 12:39:33;;;;;;;;;51.75;43.00;;;;;;;;5002774;28;11632;-79
2021/12/23 12:42:05;;;;;;;;;60.50;44.75;;;;;;;;5041619;28;11615;-76
2021/12/23 12:44:50;;;;;;;;;50.75;43.75;;;;;;;;5064871;28;11584;-74
2021/12/23 12:47:29;;;;;;;;;58.75;44.50;;;;;;;;5061036;28;11594;-74
2021/12/23 12:50:09;;;;;;;;;52.50;41.00;;;;;;;;5070994;28;11586;-75
2021/12/23 12:52:38;;;;;;;;;48.25;43.50;;;;;;;;5060619;28;11629;-73
2021/12/23 12:55:07;;;;;;;;;50.00;42.75;;;;;;;;5063734;28;11761;-76
2021/12/23 12:57:39;;;;;;;;;49.00;43.75;;;;;;;;5055091;28;11757;-74
2021/12/23 13:00:29;;;;;;;;;53.75;45.25;;;;;;;;5059075;28;11620;-74
2021/12/23 13:02:58;;;;;;;;;51.00;44.25;;;;;;;;5063699;28;11654;-76
2021/12/23 13:05:38;;;;;;;;;54.75;41.75;;;;;;;;5064088;28;11652;-75
2021/12/23 13:08:24;;;;;;;;;50.00;43.25;;;;;;;;5059729;28;12481;-74
2021/12/23 13:10:52;;;;;;;;;47.75;43.00;;;;;;;;5066110;28;11713;-72
2021/12/23 13:13:33;;;;;;;;;51.00;40.50;;;;;;;;5052603;28;12314;-75
2021/12/23 13:16:01;;;;;;;;;56.25;44.75;;;;;;;;5065806;28;11613;-74
2021/12/23 13:18:29;;;;;;;;;52.00;47.25;;;;;;;;5064262;28;11724;-75
2021/12/23 13:20:58;;;;;;;;;52.25;43.25;;;;;;;;5061545;28;12463;-75
2021/12/23 13:23:32;;;;;;;;;48.00;42.50;;;;;;;;5058432;28;11681;-75
2021/12/23 13:26:01;;;;;;;;;53.50;44.25;;;;;;;;5059933;28;11664;-76
2021/12/23 13:28:34;;;;;;;;;54.25;44.00;;;;;;;;5065092;28;11588;-71
2021/12/23 13:31:02;;;;;;;;;49.75;40.75;;;;;;;;5056736;28;11530;-83
2021/12/23 13:33:29;;;;;;;;;46.00;41.50;;;;;;;;5063937;28;11633;-76
2021/12/23 13:35:58;;;;;;;;;61.75;47.25;;;;;;;;5060665;28;11585;-75
2021/12/23 13:38:34;;;;;;;;;45.50;40.75;;;;;;;;5058978;28;11599;-74
2021/12/23 13:41:20;;;;;;;;;58.75;44.00;;;;;;;;5060191;28;11598;-75
2021/12/23 13:43:49;;;;;;;;;35.00;33.00;;;;;;;;5054739;28;11645;-74
2021/12/23 13:46:18;;;;;;;;;43.50;41.25;;;;;;;;5060852;28;11600;-75
2021/12/23 13:49:06;;;;;;;;;51.25;42.50;;;;;;;;5055215;28;11572;-77
2021/12/23 13:51:35;;;;;;;;;44.50;40.00;;;;;;;;5059840;28;11618;-78
2021/12/23 13:54:17;;;;;;;;;45.50;38.25;;;;;;;;5065668;28;11607;-74
2021/12/23 13:56:47;;;;;;;;;43.50;39.75;;;;;;;;5062278;28;11610;-74
2021/12/23 13:59:19;;;;;;;;;44.25;40.00;;;;;;;;5065990;28;11603;-75
2021/12/23 14:02:00;;;;;;;;;49.50;40.00;;;;;;;;5056445;28;12374;-73
2021/12/23 14:04:34;;;;;;;;;52.25;43.25;;;;;;;;5060583;28;11594;-73
2021/12/23 14:07:02;;;;;;;;;58.50;45.25;;;;;;;;5055090;28;11618;-74
2021/12/23 14:09:33;;;;;;;;;54.50;45.00;;;;;;;;5053938;28;11619;-73
2021/12/23 14:12:01;;;;;;;;;59.00;42.00;;;;;;;;5060466;28;11663;-75
2021/12/23 14:14:30;;;;;;;;;53.75;45.00;;;;;;;;5064089;28;11651;-73
2021/12/23 14:16:57;;;;;;;;;53.50;45.50;;;;;;;;5058142;28;11599;-75
2021/12/23 14:19:38;;;;;;;;;53.25;43.25;;;;;;;;5056345;28;11611;-76
2021/12/23 14:24:53;;;;;;;;;57.00;46.00;;;;;;;;5050848;28;11548;-75
2021/12/23 14:27:20;;;;;;;;;63.50;50.00;;;;;;;;5053511;28;11737;-75
2021/12/23 14:30:00;;;;;;;;;50.25;43.25;;;;;;;;5058449;28;11735;-74
2021/12/23 14:32:28;;;;;;;;;52.25;45.75;;;;;;;;5066492;28;11595;-74
2021/12/23 14:34:55;;;;;;;;;54.25;43.50;;;;;;;;5057284;28;11609;-74
2021/12/23 14:37:22;;;;;;;;;55.50;43.00;;;;;;;;5059386;28;11720;-77
2021/12/23 14:39:50;;;;;;;;;56.25;45.75;;;;;;;;5061641;28;12404;-76
2021/12/23 14:42:18;;;;;;;;;61.25;49.00;;;;;;;;5063884;28;11584;-77
2021/12/23 14:44:49;;;;;;;;;52.25;45.25;;;;;;;;5062386;28;11622;-73
2021/12/23 14:47:23;;;;;;;;;62.25;47.25;;;;;;;;5057707;28;11594;-75
2021/12/23 14:50:00;;;;;;;;;46.25;41.25;;;;;;;;5063225;28;11589;-73
2021/12/23 14:52:32;;;;;;;;;48.25;43.50;;;;;;;;5061867;28;11571;-75
2021/12/23 14:55:03;;;;;;;;;55.50;44.25;;;;;;;;5057738;28;11570;-74
2021/12/23 14:57:33;;;;;;;;;50.25;42.00;;;;;;;;5054712;28;12377;-75
2021/12/23 15:00:08;;;;;;;;;50.25;41.75;;;;;;;;5063163;28;11703;-76
2021/12/23 15:02:35;;;;;;;;;56.25;42.25;;;;;;;;5059775;28;11707;-72
2021/12/23 15:05:07;;;;;;;;;52.75;44.50;;;;;;;;5060037;28;11698;-73
2021/12/23 15:07:53;;;;;;;;;61.00;50.75;;;;;;;;5058614;28;11571;-72
2021/12/23 15:10:28;;;;;;;;;61.25;49.00;;;;;;;;5053509;28;11607;-75
2021/12/23 15:12:57;;;;;;;;;49.75;41.50;;;;;;;;5061847;28;11601;-76
2021/12/23 15:15:30;;;;;;;;;50.75;45.25;;;;;;;;5058015;28;11593;-75
2021/12/23 15:18:07;;;;;;;;;49.00;42.00;;;;;;;;5062697;28;12460;-75
2021/12/23 15:20:34;;;;;;;;;59.00;46.75;;;;;;;;5061080;28;11637;-78
2021/12/23 15:23:01;;;;;;;;;61.00;50.25;;;;;;;;5063214;28;11634;-72
2021/12/23 15:25:35;;;;;;;;;64.00;51.50;;;;;;;;5061542;28;11592;-74
2021/12/23 15:28:02;;;;;;;;;55.50;44.00;;;;;;;;5058837;28;11615;-74
2021/12/23 15:30:33;;;;;;;;;47.25;43.25;;;;;;;;5062642;28;11522;-71
2021/12/23 15:33:01;;;;;;;;;46.75;40.50;;;;;;;;5057282;28;11603;-72
2021/12/23 15:35:30;;;;;;;;;53.75;45.00;;;;;;;;5062651;28;11562;-71
2021/12/23 15:38:01;;;;;;;;;50.50;42.50;;;;;;;;5062244;28;11680;-75
2021/12/23 15:40:31;;;;;;;;;56.50;46.00;;;;;;;;5063678;28;11611;-73
2021/12/23 15:43:01;;;;;;;;;60.00;49.25;;;;;;;;5059790;28;11621;-71
2021/12/23 15:45:31;;;;;;;;;57.50;43.75;;;;;;;;5060176;28;11663;-74
2021/12/23 15:47:58;;;;;;;;;69.25;54.25;;;;;;;;5058830;28;11603;-72